sensor_id;sensor_type;location;lat;lon;timestamp;temperature;humidity
45643;DHT22;31358;46.008;11.144;2023-05-07T14:57:58;24.40;92.40
45643;DHT22;31358;46.008;11.144;2023-05-07T15:00:23;24.40;92.20
45643;DHT22;31358;46.008;11.144;2023-05-07T15:02:49;24.30;92.40
45643;DHT22;31358;46.008;11.144;2023-05-07T15:05:15;24.40;92.00
45643;DHT22;31358;46.008;11.144;2023-05-07T15:07:40;24.30;92.10
45643;DHT22;31358;46.008;11.144;2023-05-07T15:10:06;24.30;92.20
45643;DHT22;31358;46.008;11.144;2023-05-07T15:12:32;24.10;92.20
45643;DHT22;31358;46.008;11.144;2023-05-07T15:14:57;24.30;92.60
45643;DHT22;31358;46.008;11.144;2023-05-07T15:17:23;24.70;91.70
45643;DHT22;31358;46.008;11.144;2023-05-07T15:19:49;25.10;91.80
45643;DHT22;31358;46.008;11.144;2023-05-07T15:22:15;25.50;91.60
45643;DHT22;31358;46.008;11.144;2023-05-07T15:24:40;25.60;92.30
45643;DHT22;31358;46.008;11.144;2023-05-07T15:27:06;25.70;92.10
45643;DHT22;31358;46.008;11.144;2023-05-07T15:29:32;25.50;92.20
45643;DHT22;31358;46.008;11.144;2023-05-07T15:31:58;25.70;92.00
45643;DHT22;31358;46.008;11.144;2023-05-07T15:34:23;26.00;92.30
45643;DHT22;31358;46.008;11.144;2023-05-07T15:36:49;25.70;91.40
45643;DHT22;31358;46.008;11.144;2023-05-07T15:39:15;25.70;91.40
45643;DHT22;31358;46.008;11.144;2023-05-07T15:41:41;26.10;91.70
45643;DHT22;31358;46.008;11.144;2023-05-07T15:44:07;26.20;91.40
45643;DHT22;31358;46.008;11.144;2023-05-07T15:46:32;25.80;91.40
45643;DHT22;31358;46.008;11.144;2023-05-07T15:49:01;25.70;91.70
45643;DHT22;31358;46.008;11.144;2023-05-07T15:51:28;25.70;91.10
45643;DHT22;31358;46.008;11.144;2023-05-07T15:53:55;25.50;91.60
45643;DHT22;31358;46.008;11.144;2023-05-07T15:56:20;25.70;91.70
45643;DHT22;31358;46.008;11.144;2023-05-07T15:58:46;25.80;91.50
45643;DHT22;31358;46.008;11.144;2023-05-07T16:01:12;25.50;91.40
45643;DHT22;31358;46.008;11.144;2023-05-07T16:03:38;25.10;91.50
45643;DHT22;31358;46.008;11.144;2023-05-07T16:06:05;24.80;92.00
45643;DHT22;31358;46.008;11.144;2023-05-07T16:08:31;24.70;92.20
45643;DHT22;31358;46.008;11.144;2023-05-07T16:10:58;24.60;91.40
45643;DHT22;31358;46.008;11.144;2023-05-07T16:13:23;24.00;91.00
45643;DHT22;31358;46.008;11.144;2023-05-07T16:15:49;23.80;91.30
45643;DHT22;31358;46.008;11.144;2023-05-07T16:18:19;23.60;91.90
45643;DHT22;31358;46.008;11.144;2023-05-07T16:20:45;23.50;92.20
45643;DHT22;31358;46.008;11.144;2023-05-07T16:23:11;23.20;92.80
45643;DHT22;31358;46.008;11.144;2023-05-07T16:25:37;23.00;93.10
45643;DHT22;31358;46.008;11.144;2023-05-07T16:28:03;22.90;93.50
45643;DHT22;31358;46.008;11.144;2023-05-07T16:30:29;22.80;93.60
45643;DHT22;31358;46.008;11.144;2023-05-07T16:32:54;22.80;92.80
45643;DHT22;31358;46.008;11.144;2023-05-07T16:35:20;22.80;92.40
45643;DHT22;31358;46.008;11.144;2023-05-07T16:37:46;22.60;92.40
45643;DHT22;31358;46.008;11.144;2023-05-07T16:40:12;22.40;92.30
45643;DHT22;31358;46.008;11.144;2023-05-07T16:42:37;22.50;92.00
45643;DHT22;31358;46.008;11.144;2023-05-07T16:45:04;22.20;93.10
45643;DHT22;31358;46.008;11.144;2023-05-07T16:47:31;21.30;93.40
45643;DHT22;31358;46.008;11.144;2023-05-07T16:49:57;21.20;93.20
45643;DHT22;31358;46.008;11.144;2023-05-07T16:52:25;21.30;93.40
45643;DHT22;31358;46.008;11.144;2023-05-07T16:54:51;21.40;93.60
45643;DHT22;31358;46.008;11.144;2023-05-07T16:57:17;21.20;94.20
45643;DHT22;31358;46.008;11.144;2023-05-07T16:59:43;21.20;94.40
45643;DHT22;31358;46.008;11.144;2023-05-07T17:02:08;21.10;94.80
45643;DHT22;31358;46.008;11.144;2023-05-07T17:04:34;20.90;95.20
45643;DHT22;31358;46.008;11.144;2023-05-07T17:06:59;20.90;95.90
45643;DHT22;31358;46.008;11.144;2023-05-07T17:09:25;20.90;96.10
45643;DHT22;31358;46.008;11.144;2023-05-07T17:11:51;20.90;96.70
45643;DHT22;31358;46.008;11.144;2023-05-07T17:14:17;20.80;97.30
45643;DHT22;31358;46.008;11.144;2023-05-07T17:16:43;20.70;97.40
45643;DHT22;31358;46.008;11.144;2023-05-07T17:19:08;20.80;97.50
45643;DHT22;31358;46.008;11.144;2023-05-07T17:21:37;20.80;97.40
45643;DHT22;31358;46.008;11.144;2023-05-07T17:24:02;20.80;97.00
45643;DHT22;31358;46.008;11.144;2023-05-07T17:26:28;20.70;96.70
45643;DHT22;31358;46.008;11.144;2023-05-07T17:28:55;20.70;96.60
45643;DHT22;31358;46.008;11.144;2023-05-07T17:31:21;20.70;96.50
45643;DHT22;31358;46.008;11.144;2023-05-07T17:33:47;20.80;96.30
45643;DHT22;31358;46.008;11.144;2023-05-07T17:36:12;20.80;96.50
45643;DHT22;31358;46.008;11.144;2023-05-07T17:38:38;20.60;96.50
45643;DHT22;31358;46.008;11.144;2023-05-07T17:41:04;20.60;96.40
45643;DHT22;31358;46.008;11.144;2023-05-07T17:43:29;20.60;96.10
45643;DHT22;31358;46.008;11.144;2023-05-07T17:45:55;20.60;96.70
45643;DHT22;31358;46.008;11.144;2023-05-07T17:48:20;20.50;97.00
45643;DHT22;31358;46.008;11.144;2023-05-07T17:50:46;20.50;96.60
45643;DHT22;31358;46.008;11.144;2023-05-07T17:53:12;20.40;96.50
45643;DHT22;31358;46.008;11.144;2023-05-07T17:55:44;20.40;96.50
45643;DHT22;31358;46.008;11.144;2023-05-07T17:58:10;20.40;96.40
45643;DHT22;31358;46.008;11.144;2023-05-07T18:00:36;20.00;99.30
45643;DHT22;31358;46.008;11.144;2023-05-07T18:03:03;19.20;99.90
45643;DHT22;31358;46.008;11.144;2023-05-07T18:05:29;18.60;99.90
45643;DHT22;31358;46.008;11.144;2023-05-07T18:07:55;17.90;99.90
45643;DHT22;31358;46.008;11.144;2023-05-07T18:10:23;17.80;99.90
45643;DHT22;31358;46.008;11.144;2023-05-07T18:12:49;17.40;99.90
45643;DHT22;31358;46.008;11.144;2023-05-07T18:15:15;17.10;99.90
45643;DHT22;31358;46.008;11.144;2023-05-07T18:17:40;16.80;99.90
45643;DHT22;31358;46.008;11.144;2023-05-07T18:20:06;16.90;99.90
45643;DHT22;31358;46.008;11.144;2023-05-07T18:22:38;16.70;99.90
45643;DHT22;31358;46.008;11.144;2023-05-07T18:25:04;16.80;99.90
45643;DHT22;31358;46.008;11.144;2023-05-07T18:27:30;16.70;99.90
45643;DHT22;31358;46.008;11.144;2023-05-07T18:29:56;16.30;99.90
45643;DHT22;31358;46.008;11.144;2023-05-07T18:32:21;16.40;99.90
45643;DHT22;31358;46.008;11.144;2023-05-07T18:34:47;16.60;99.90
45643;DHT22;31358;46.008;11.144;2023-05-07T18:37:13;16.20;99.90
45643;DHT22;31358;46.008;11.144;2023-05-07T18:39:39;16.20;99.90
45643;DHT22;31358;46.008;11.144;2023-05-07T18:42:05;16.20;99.90
45643;DHT22;31358;46.008;11.144;2023-05-07T18:44:32;16.10;99.90
45643;DHT22;31358;46.008;11.144;2023-05-07T18:47:02;16.20;99.90
45643;DHT22;31358;46.008;11.144;2023-05-07T18:49:27;16.50;99.90
45643;DHT22;31358;46.008;11.144;2023-05-07T18:51:53;16.40;99.90
45643;DHT22;31358;46.008;11.144;2023-05-07T18:54:19;16.40;99.90
45643;DHT22;31358;46.008;11.144;2023-05-07T18:56:44;16.40;99.90
45643;DHT22;31358;46.008;11.144;2023-05-07T18:59:10;16.50;99.90
45643;DHT22;31358;46.008;11.144;2023-05-07T19:01:36;16.40;99.90
45643;DHT22;31358;46.008;11.144;2023-05-07T19:04:01;16.20;99.90
45643;DHT22;31358;46.008;11.144;2023-05-07T19:06:27;16.00;99.90
45643;DHT22;31358;46.008;11.144;2023-05-07T19:08:52;16.20;99.90
45643;DHT22;31358;46.008;11.144;2023-05-07T19:11:18;16.30;99.90
45643;DHT22;31358;46.008;11.144;2023-05-07T19:13:44;16.40;99.90
45643;DHT22;31358;46.008;11.144;2023-05-07T19:16:10;16.60;99.90
45643;DHT22;31358;46.008;11.144;2023-05-07T19:18:37;16.70;99.90
45643;DHT22;31358;46.008;11.144;2023-05-07T19:21:03;16.90;99.90
45643;DHT22;31358;46.008;11.144;2023-05-07T19:23:29;16.70;99.90
45643;DHT22;31358;46.008;11.144;2023-05-07T19:25:55;16.50;99.90
45643;DHT22;31358;46.008;11.144;2023-05-07T19:28:20;16.40;99.90
45643;DHT22;31358;46.008;11.144;2023-05-07T19:30:46;16.30;99.90
45643;DHT22;31358;46.008;11.144;2023-05-07T19:33:14;16.50;99.90
45643;DHT22;31358;46.008;11.144;2023-05-07T19:35:40;16.50;99.90
45643;DHT22;31358;46.008;11.144;2023-05-07T19:38:05;16.70;99.90
45643;DHT22;31358;46.008;11.144;2023-05-07T19:40:32;16.70;99.90
45643;DHT22;31358;46.008;11.144;2023-05-07T19:42:58;16.60;99.90
45643;DHT22;31358;46.008;11.144;2023-05-07T20:03:17;16.10;99.90
45643;DHT22;31358;46.008;11.144;2023-05-07T20:05:45;15.80;99.90
45643;DHT22;31358;46.008;11.144;2023-05-07T20:08:11;15.40;99.90
45643;DHT22;31358;46.008;11.144;2023-05-07T20:10:37;15.10;99.90
45643;DHT22;31358;46.008;11.144;2023-05-07T20:13:03;15.00;99.90
45643;DHT22;31358;46.008;11.144;2023-05-07T20:15:28;15.10;99.90
45643;DHT22;31358;46.008;11.144;2023-05-07T20:17:54;15.30;99.90
45643;DHT22;31358;46.008;11.144;2023-05-07T20:20:20;15.50;99.90
45643;DHT22;31358;46.008;11.144;2023-05-07T20:22:45;15.60;99.90
45643;DHT22;31358;46.008;11.144;2023-05-07T20:25:11;15.60;99.90
45643;DHT22;31358;46.008;11.144;2023-05-07T20:27:40;15.60;99.90
45643;DHT22;31358;46.008;11.144;2023-05-07T20:30:06;15.50;99.90
45643;DHT22;31358;46.008;11.144;2023-05-07T20:32:33;15.40;99.90
45643;DHT22;31358;46.008;11.144;2023-05-07T20:34:58;15.30;99.90
45643;DHT22;31358;46.008;11.144;2023-05-07T20:37:24;15.40;99.90
45643;DHT22;31358;46.008;11.144;2023-05-07T20:39:51;15.50;99.90
45643;DHT22;31358;46.008;11.144;2023-05-07T20:42:17;15.40;99.90
45643;DHT22;31358;46.008;11.144;2023-05-07T20:44:43;15.20;99.90
45643;DHT22;31358;46.008;11.144;2023-05-07T20:47:09;15.30;99.90
45643;DHT22;31358;46.008;11.144;2023-05-07T20:49:34;15.40;99.90
45643;DHT22;31358;46.008;11.144;2023-05-07T20:52:00;15.30;99.90
45643;DHT22;31358;46.008;11.144;2023-05-07T20:54:26;15.40;99.90
45643;DHT22;31358;46.008;11.144;2023-05-07T20:56:55;15.40;99.90
45643;DHT22;31358;46.008;11.144;2023-05-07T20:59:22;15.20;99.90
45643;DHT22;31358;46.008;11.144;2023-05-07T21:01:48;15.30;99.90
45643;DHT22;31358;46.008;11.144;2023-05-07T21:04:14;15.50;99.90
45643;DHT22;31358;46.008;11.144;2023-05-07T21:06:40;15.30;99.90
45643;DHT22;31358;46.008;11.144;2023-05-07T21:09:07;15.30;99.90
45643;DHT22;31358;46.008;11.144;2023-05-07T21:11:33;15.30;99.90
45643;DHT22;31358;46.008;11.144;2023-05-07T21:13:59;15.40;99.90
45643;DHT22;31358;46.008;11.144;2023-05-07T21:16:24;15.40;99.90
45643;DHT22;31358;46.008;11.144;2023-05-07T21:18:50;15.50;99.90
45643;DHT22;31358;46.008;11.144;2023-05-07T21:21:16;15.60;99.90
45643;DHT22;31358;46.008;11.144;2023-05-07T21:23:41;15.70;99.90
45643;DHT22;31358;46.008;11.144;2023-05-07T21:26:07;15.70;99.90
45643;DHT22;31358;46.008;11.144;2023-05-07T21:28:33;15.70;99.90
45643;DHT22;31358;46.008;11.144;2023-05-07T21:30:59;15.70;99.90
45643;DHT22;31358;46.008;11.144;2023-05-07T21:33:25;15.60;99.90
45643;DHT22;31358;46.008;11.144;2023-05-07T21:35:50;15.60;99.90
45643;DHT22;31358;46.008;11.144;2023-05-07T21:38:16;15.50;99.90
45643;DHT22;31358;46.008;11.144;2023-05-07T21:40:45;15.40;99.90
45643;DHT22;31358;46.008;11.144;2023-05-07T21:43:10;15.30;99.90
45643;DHT22;31358;46.008;11.144;2023-05-07T21:45:38;15.30;99.90
45643;DHT22;31358;46.008;11.144;2023-05-07T21:48:04;15.30;99.90
45643;DHT22;31358;46.008;11.144;2023-05-07T21:50:30;15.40;99.90
45643;DHT22;31358;46.008;11.144;2023-05-07T21:52:55;15.20;99.90
45643;DHT22;31358;46.008;11.144;2023-05-07T21:55:21;15.10;99.90
45643;DHT22;31358;46.008;11.144;2023-05-07T21:57:46;14.90;99.90
45643;DHT22;31358;46.008;11.144;2023-05-07T22:00:12;14.90;99.90
45643;DHT22;31358;46.008;11.144;2023-05-07T22:02:38;15.00;99.90
45643;DHT22;31358;46.008;11.144;2023-05-07T22:05:04;15.00;99.90
45643;DHT22;31358;46.008;11.144;2023-05-07T22:07:30;14.90;99.90
45643;DHT22;31358;46.008;11.144;2023-05-07T22:09:56;14.90;99.90
45643;DHT22;31358;46.008;11.144;2023-05-07T22:12:21;15.10;99.90
45643;DHT22;31358;46.008;11.144;2023-05-07T22:14:47;15.20;99.90
45643;DHT22;31358;46.008;11.144;2023-05-07T22:17:13;15.20;99.90
45643;DHT22;31358;46.008;11.144;2023-05-07T22:19:38;15.10;99.90
45643;DHT22;31358;46.008;11.144;2023-05-07T22:22:05;15.00;99.90
45643;DHT22;31358;46.008;11.144;2023-05-07T22:24:30;15.00;99.90
45643;DHT22;31358;46.008;11.144;2023-05-07T22:26:56;15.10;99.90
45643;DHT22;31358;46.008;11.144;2023-05-07T22:29:22;15.10;99.90
45643;DHT22;31358;46.008;11.144;2023-05-07T22:31:50;15.10;99.90
45643;DHT22;31358;46.008;11.144;2023-05-07T22:34:16;15.10;99.90
45643;DHT22;31358;46.008;11.144;2023-05-07T22:36:42;14.90;99.90
45643;DHT22;31358;46.008;11.144;2023-05-07T22:39:08;14.90;99.90
45643;DHT22;31358;46.008;11.144;2023-05-07T22:41:35;14.90;99.90
45643;DHT22;31358;46.008;11.144;2023-05-07T22:44:01;14.90;99.90
45643;DHT22;31358;46.008;11.144;2023-05-07T22:46:26;14.90;99.90
45643;DHT22;31358;46.008;11.144;2023-05-07T22:48:52;15.10;99.90
45643;DHT22;31358;46.008;11.144;2023-05-07T22:51:18;15.00;99.90
45643;DHT22;31358;46.008;11.144;2023-05-07T22:53:43;15.00;99.90
45643;DHT22;31358;46.008;11.144;2023-05-07T22:56:10;15.00;99.90
45643;DHT22;31358;46.008;11.144;2023-05-07T22:58:36;15.00;99.90
45643;DHT22;31358;46.008;11.144;2023-05-07T23:01:02;15.10;99.90
45643;DHT22;31358;46.008;11.144;2023-05-07T23:03:28;15.10;99.90
45643;DHT22;31358;46.008;11.144;2023-05-07T23:05:53;14.70;99.90
45643;DHT22;31358;46.008;11.144;2023-05-07T23:08:19;14.70;99.90
45643;DHT22;31358;46.008;11.144;2023-05-07T23:10:45;14.70;99.90
45643;DHT22;31358;46.008;11.144;2023-05-07T23:13:10;14.70;99.90
45643;DHT22;31358;46.008;11.144;2023-05-07T23:15:42;14.90;99.90
45643;DHT22;31358;46.008;11.144;2023-05-07T23:18:08;15.00;99.90
45643;DHT22;31358;46.008;11.144;2023-05-07T23:20:33;15.10;99.90
45643;DHT22;31358;46.008;11.144;2023-05-07T23:22:59;15.10;99.90
45643;DHT22;31358;46.008;11.144;2023-05-07T23:25:25;15.10;99.90
45643;DHT22;31358;46.008;11.144;2023-05-07T23:27:50;15.00;99.90
45643;DHT22;31358;46.008;11.144;2023-05-07T23:30:16;15.00;99.90
45643;DHT22;31358;46.008;11.144;2023-05-07T23:32:42;15.00;99.90
45643;DHT22;31358;46.008;11.144;2023-05-07T23:35:08;14.90;99.90
45643;DHT22;31358;46.008;11.144;2023-05-07T23:37:34;14.80;99.90
45643;DHT22;31358;46.008;11.144;2023-05-07T23:40:00;14.80;99.90
45643;DHT22;31358;46.008;11.144;2023-05-07T23:42:25;14.80;99.90
45643;DHT22;31358;46.008;11.144;2023-05-07T23:44:51;14.60;99.90
45643;DHT22;31358;46.008;11.144;2023-05-07T23:47:16;14.70;99.90
45643;DHT22;31358;46.008;11.144;2023-05-07T23:49:42;14.80;99.90
45643;DHT22;31358;46.008;11.144;2023-05-07T23:52:08;14.80;99.90
45643;DHT22;31358;46.008;11.144;2023-05-07T23:54:33;14.90;99.90
45643;DHT22;31358;46.008;11.144;2023-05-07T23:56:59;14.80;99.90
45643;DHT22;31358;46.008;11.144;2023-05-07T23:59:25;14.70;99.90
